sensor_id;sensor_type;location;lat;lon;timestamp;pressure;altitude;pressure_sealevel;temperature;humidity
43450;BME280;29041;42.266;23.110;2024-01-16T00:01:03;94344.78;;;5.74;100.00
43450;BME280;29041;42.266;23.110;2024-01-16T00:03:50;94346.88;;;5.68;100.00
43450;BME280;29041;42.266;23.110;2024-01-16T00:06:39;94336.66;;;5.70;100.00
43450;BME280;29041;42.266;23.110;2024-01-16T00:09:26;94335.44;;;5.89;100.00
43450;BME280;29041;42.266;23.110;2024-01-16T00:12:13;94338.56;;;5.70;100.00
43450;BME280;29041;42.266;23.110;2024-01-16T00:15:01;94346.53;;;5.70;100.00
43450;BME280;29041;42.266;23.110;2024-01-16T00:17:48;94339.06;;;5.63;100.00
43450;BME280;29041;42.266;23.110;2024-01-16T00:20:37;94341.59;;;5.60;100.00
43450;BME280;29041;42.266;23.110;2024-01-16T00:23:24;94355.88;;;5.55;100.00
43450;BME280;29041;42.266;23.110;2024-01-16T00:26:19;94349.31;;;5.52;100.00
43450;BME280;29041;42.266;23.110;2024-01-16T00:29:06;94346.41;;;5.66;100.00
43450;BME280;29041;42.266;23.110;2024-01-16T00:31:56;94352.59;;;5.79;100.00
43450;BME280;29041;42.266;23.110;2024-01-16T00:34:43;94357.31;;;5.74;100.00
43450;BME280;29041;42.266;23.110;2024-01-16T00:37:30;94354.66;;;5.74;100.00
43450;BME280;29041;42.266;23.110;2024-01-16T00:40:17;94356.56;;;5.73;100.00
43450;BME280;29041;42.266;23.110;2024-01-16T00:43:04;94355.84;;;5.64;100.00
43450;BME280;29041;42.266;23.110;2024-01-16T00:45:51;94354.28;;;5.84;100.00
43450;BME280;29041;42.266;23.110;2024-01-16T00:48:40;94359.66;;;5.96;100.00
43450;BME280;29041;42.266;23.110;2024-01-16T00:51:27;94361.53;;;5.96;100.00
43450;BME280;29041;42.266;23.110;2024-01-16T00:54:14;94372.97;;;5.96;100.00
43450;BME280;29041;42.266;23.110;2024-01-16T00:57:01;94363.03;;;5.84;100.00
43450;BME280;29041;42.266;23.110;2024-01-16T00:59:48;94362.84;;;5.90;100.00
43450;BME280;29041;42.266;23.110;2024-01-16T01:02:35;94360.16;;;5.90;100.00
43450;BME280;29041;42.266;23.110;2024-01-16T01:05:26;94359.09;;;6.12;100.00
43450;BME280;29041;42.266;23.110;2024-01-16T01:08:14;94365.91;;;6.00;100.00
43450;BME280;29041;42.266;23.110;2024-01-16T01:11:06;94380.63;;;5.98;100.00
43450;BME280;29041;42.266;23.110;2024-01-16T01:13:53;94369.84;;;5.94;100.00
43450;BME280;29041;42.266;23.110;2024-01-16T01:16:41;94378.97;;;5.72;100.00
43450;BME280;29041;42.266;23.110;2024-01-16T01:19:28;94383.34;;;5.68;100.00
43450;BME280;29041;42.266;23.110;2024-01-16T01:22:17;94387.44;;;5.65;100.00
43450;BME280;29041;42.266;23.110;2024-01-16T01:25:05;94388.50;;;5.73;100.00
43450;BME280;29041;42.266;23.110;2024-01-16T01:27:52;94396.09;;;5.83;100.00
43450;BME280;29041;42.266;23.110;2024-01-16T01:30:39;94392.56;;;5.70;100.00
43450;BME280;29041;42.266;23.110;2024-01-16T01:33:26;94388.06;;;5.71;100.00
43450;BME280;29041;42.266;23.110;2024-01-16T01:36:13;94372.66;;;5.55;100.00
43450;BME280;29041;42.266;23.110;2024-01-16T01:39:02;94360.09;;;5.56;100.00
43450;BME280;29041;42.266;23.110;2024-01-16T01:41:49;94367.66;;;5.54;100.00
43450;BME280;29041;42.266;23.110;2024-01-16T01:44:36;94372.03;;;5.50;100.00
43450;BME280;29041;42.266;23.110;2024-01-16T01:47:24;94371.31;;;5.40;100.00
43450;BME280;29041;42.266;23.110;2024-01-16T01:50:14;94379.69;;;5.51;100.00
43450;BME280;29041;42.266;23.110;2024-01-16T01:53:02;94364.72;;;5.47;100.00
43450;BME280;29041;42.266;23.110;2024-01-16T01:55:50;94369.91;;;5.43;100.00
43450;BME280;29041;42.266;23.110;2024-01-16T01:58:38;94374.38;;;5.51;100.00
43450;BME280;29041;42.266;23.110;2024-01-16T02:01:26;94378.03;;;5.68;100.00
43450;BME280;29041;42.266;23.110;2024-01-16T02:04:15;94377.00;;;5.81;100.00
43450;BME280;29041;42.266;23.110;2024-01-16T02:07:02;94383.34;;;5.68;100.00
43450;BME280;29041;42.266;23.110;2024-01-16T02:09:50;94379.84;;;5.76;100.00
43450;BME280;29041;42.266;23.110;2024-01-16T02:12:38;94384.47;;;5.88;100.00
43450;BME280;29041;42.266;23.110;2024-01-16T02:15:25;94389.72;;;5.97;100.00
43450;BME280;29041;42.266;23.110;2024-01-16T02:18:12;94391.56;;;5.84;100.00
43450;BME280;29041;42.266;23.110;2024-01-16T02:21:00;94386.25;;;6.05;100.00
43450;BME280;29041;42.266;23.110;2024-01-16T02:23:53;94396.34;;;5.91;100.00
43450;BME280;29041;42.266;23.110;2024-01-16T02:26:41;94389.91;;;5.70;100.00
43450;BME280;29041;42.266;23.110;2024-01-16T02:29:28;94410.66;;;5.86;100.00
43450;BME280;29041;42.266;23.110;2024-01-16T02:32:20;94406.88;;;5.66;100.00
43450;BME280;29041;42.266;23.110;2024-01-16T02:35:07;94417.16;;;5.97;100.00
43450;BME280;29041;42.266;23.110;2024-01-16T02:37:55;94416.56;;;5.92;100.00
43450;BME280;29041;42.266;23.110;2024-01-16T02:40:44;94406.63;;;5.80;100.00
43450;BME280;29041;42.266;23.110;2024-01-16T02:43:31;94421.56;;;5.93;100.00
43450;BME280;29041;42.266;23.110;2024-01-16T02:46:18;94421.13;;;6.12;100.00
43450;BME280;29041;42.266;23.110;2024-01-16T02:49:05;94414.66;;;5.92;100.00
43450;BME280;29041;42.266;23.110;2024-01-16T02:51:53;94444.44;;;5.94;100.00
43450;BME280;29041;42.266;23.110;2024-01-16T02:54:40;94421.69;;;5.97;100.00
43450;BME280;29041;42.266;23.110;2024-01-16T02:57:29;94453.88;;;5.62;100.00
43450;BME280;29041;42.266;23.110;2024-01-16T03:00:16;94459.25;;;5.83;100.00
43450;BME280;29041;42.266;23.110;2024-01-16T03:03:04;94466.44;;;5.82;100.00
43450;BME280;29041;42.266;23.110;2024-01-16T03:05:51;94471.22;;;5.98;100.00
43450;BME280;29041;42.266;23.110;2024-01-16T03:08:38;94484.78;;;6.14;100.00
43450;BME280;29041;42.266;23.110;2024-01-16T03:11:26;94501.53;;;6.14;100.00
43450;BME280;29041;42.266;23.110;2024-01-16T03:14:14;94498.34;;;6.42;100.00
43450;BME280;29041;42.266;23.110;2024-01-16T03:17:01;94499.44;;;6.62;100.00
43450;BME280;29041;42.266;23.110;2024-01-16T03:19:48;94488.66;;;6.38;100.00
43450;BME280;29041;42.266;23.110;2024-01-16T03:22:36;94502.84;;;6.29;100.00
43450;BME280;29041;42.266;23.110;2024-01-16T03:25:23;94496.19;;;6.57;100.00
43450;BME280;29041;42.266;23.110;2024-01-16T03:28:10;94478.34;;;6.36;100.00
43450;BME280;29041;42.266;23.110;2024-01-16T03:30:59;94498.81;;;6.23;100.00
43450;BME280;29041;42.266;23.110;2024-01-16T03:33:46;94491.41;;;6.50;100.00
43450;BME280;29041;42.266;23.110;2024-01-16T03:36:33;94495.44;;;6.35;100.00
43450;BME280;29041;42.266;23.110;2024-01-16T03:39:20;94502.28;;;5.94;100.00
43450;BME280;29041;42.266;23.110;2024-01-16T03:42:08;94519.72;;;5.82;100.00
43450;BME280;29041;42.266;23.110;2024-01-16T03:44:55;94529.28;;;5.83;100.00
43450;BME280;29041;42.266;23.110;2024-01-16T03:47:44;94528.09;;;5.63;100.00
43450;BME280;29041;42.266;23.110;2024-01-16T03:50:31;94526.00;;;5.78;100.00
43450;BME280;29041;42.266;23.110;2024-01-16T03:53:19;94533.59;;;6.06;100.00
43450;BME280;29041;42.266;23.110;2024-01-16T03:56:06;94531.56;;;6.02;100.00
43450;BME280;29041;42.266;23.110;2024-01-16T03:58:54;94537.25;;;5.83;100.00
43450;BME280;29041;42.266;23.110;2024-01-16T04:01:41;94547.63;;;5.76;100.00
43450;BME280;29041;42.266;23.110;2024-01-16T04:04:31;94548.38;;;5.85;100.00
43450;BME280;29041;42.266;23.110;2024-01-16T04:07:18;94547.22;;;5.95;100.00
43450;BME280;29041;42.266;23.110;2024-01-16T04:10:07;94557.47;;;5.84;100.00
43450;BME280;29041;42.266;23.110;2024-01-16T04:12:54;94571.94;;;5.75;100.00
43450;BME280;29041;42.266;23.110;2024-01-16T04:15:41;94573.22;;;5.68;100.00
43450;BME280;29041;42.266;23.110;2024-01-16T04:18:28;94584.38;;;5.92;100.00
43450;BME280;29041;42.266;23.110;2024-01-16T04:21:17;94590.81;;;5.99;100.00
43450;BME280;29041;42.266;23.110;2024-01-16T04:24:04;94606.91;;;6.42;100.00
43450;BME280;29041;42.266;23.110;2024-01-16T04:26:51;94619.06;;;6.51;100.00
43450;BME280;29041;42.266;23.110;2024-01-16T04:29:39;94624.47;;;6.64;100.00
43450;BME280;29041;42.266;23.110;2024-01-16T04:32:26;94634.44;;;6.76;100.00
43450;BME280;29041;42.266;23.110;2024-01-16T04:35:13;94638.03;;;6.80;100.00
43450;BME280;29041;42.266;23.110;2024-01-16T04:38:02;94649.97;;;6.53;100.00
43450;BME280;29041;42.266;23.110;2024-01-16T04:40:50;94656.13;;;6.44;100.00
43450;BME280;29041;42.266;23.110;2024-01-16T04:43:37;94659.47;;;6.32;100.00
43450;BME280;29041;42.266;23.110;2024-01-16T04:46:24;94657.63;;;6.24;100.00
43450;BME280;29041;42.266;23.110;2024-01-16T04:49:12;94664.38;;;6.51;100.00
43450;BME280;29041;42.266;23.110;2024-01-16T04:51:59;94678.22;;;6.45;100.00
43450;BME280;29041;42.266;23.110;2024-01-16T04:54:47;94682.53;;;6.88;100.00
43450;BME280;29041;42.266;23.110;2024-01-16T04:57:34;94689.63;;;7.05;100.00
43450;BME280;29041;42.266;23.110;2024-01-16T05:00:22;94693.09;;;6.85;100.00
43450;BME280;29041;42.266;23.110;2024-01-16T05:03:09;94696.06;;;6.14;100.00
43450;BME280;29041;42.266;23.110;2024-01-16T05:05:56;94701.94;;;5.90;100.00
43450;BME280;29041;42.266;23.110;2024-01-16T05:08:43;94709.63;;;5.65;100.00
43450;BME280;29041;42.266;23.110;2024-01-16T05:11:32;94699.81;;;5.39;100.00
43450;BME280;29041;42.266;23.110;2024-01-16T05:14:19;94712.91;;;5.62;100.00
43450;BME280;29041;42.266;23.110;2024-01-16T05:17:08;94729.38;;;5.99;100.00
43450;BME280;29041;42.266;23.110;2024-01-16T05:19:55;94727.28;;;6.05;100.00
43450;BME280;29041;42.266;23.110;2024-01-16T05:22:42;94730.78;;;5.79;100.00
43450;BME280;29041;42.266;23.110;2024-01-16T05:25:29;94742.03;;;6.02;100.00
43450;BME280;29041;42.266;23.110;2024-01-16T05:28:18;94764.06;;;6.29;100.00
43450;BME280;29041;42.266;23.110;2024-01-16T05:31:05;94764.25;;;5.98;100.00
43450;BME280;29041;42.266;23.110;2024-01-16T05:33:53;94778.06;;;6.09;100.00
43450;BME280;29041;42.266;23.110;2024-01-16T05:36:40;94790.63;;;5.99;100.00
43450;BME280;29041;42.266;23.110;2024-01-16T05:39:27;94794.38;;;6.07;100.00
43450;BME280;29041;42.266;23.110;2024-01-16T05:42:14;94804.09;;;5.85;100.00
43450;BME280;29041;42.266;23.110;2024-01-16T05:45:03;94810.53;;;5.49;100.00
43450;BME280;29041;42.266;23.110;2024-01-16T05:47:50;94806.28;;;5.83;100.00
43450;BME280;29041;42.266;23.110;2024-01-16T05:50:37;94816.94;;;5.57;100.00
43450;BME280;29041;42.266;23.110;2024-01-16T05:53:24;94834.47;;;5.49;100.00
43450;BME280;29041;42.266;23.110;2024-01-16T05:56:11;94843.41;;;5.53;100.00
43450;BME280;29041;42.266;23.110;2024-01-16T05:58:59;94866.75;;;5.65;100.00
43450;BME280;29041;42.266;23.110;2024-01-16T06:01:47;94876.63;;;5.65;100.00
43450;BME280;29041;42.266;23.110;2024-01-16T06:04:34;94860.47;;;5.52;100.00
43450;BME280;29041;42.266;23.110;2024-01-16T06:07:22;94894.34;;;5.78;100.00
43450;BME280;29041;42.266;23.110;2024-01-16T06:10:11;94902.28;;;5.52;100.00
43450;BME280;29041;42.266;23.110;2024-01-16T06:13:01;94894.25;;;5.34;100.00
43450;BME280;29041;42.266;23.110;2024-01-16T06:15:48;94905.44;;;5.05;100.00
43450;BME280;29041;42.266;23.110;2024-01-16T06:18:37;94934.56;;;5.10;100.00
43450;BME280;29041;42.266;23.110;2024-01-16T06:21:34;94937.16;;;5.33;100.00
43450;BME280;29041;42.266;23.110;2024-01-16T06:24:21;94952.63;;;5.31;100.00
43450;BME280;29041;42.266;23.110;2024-01-16T06:27:09;94970.50;;;5.30;100.00
43450;BME280;29041;42.266;23.110;2024-01-16T06:29:56;94967.00;;;5.21;100.00
43450;BME280;29041;42.266;23.110;2024-01-16T06:32:43;94988.91;;;5.18;100.00
43450;BME280;29041;42.266;23.110;2024-01-16T06:35:31;94990.41;;;5.01;100.00
43450;BME280;29041;42.266;23.110;2024-01-16T06:38:18;94997.22;;;4.93;100.00
43450;BME280;29041;42.266;23.110;2024-01-16T06:41:06;95010.88;;;5.01;100.00
43450;BME280;29041;42.266;23.110;2024-01-16T06:43:53;95041.34;;;4.95;100.00
43450;BME280;29041;42.266;23.110;2024-01-16T06:46:40;95052.66;;;4.78;100.00
43450;BME280;29041;42.266;23.110;2024-01-16T06:49:27;95055.75;;;4.93;100.00
43450;BME280;29041;42.266;23.110;2024-01-16T06:52:17;95067.41;;;4.84;100.00
43450;BME280;29041;42.266;23.110;2024-01-16T06:55:04;95075.31;;;4.52;100.00
43450;BME280;29041;42.266;23.110;2024-01-16T06:57:51;95076.50;;;4.46;100.00
43450;BME280;29041;42.266;23.110;2024-01-16T07:00:39;95096.31;;;4.26;100.00
43450;BME280;29041;42.266;23.110;2024-01-16T07:03:27;95096.31;;;4.26;100.00
43450;BME280;29041;42.266;23.110;2024-01-16T07:06:14;95112.06;;;4.22;100.00
43450;BME280;29041;42.266;23.110;2024-01-16T07:09:03;95130.47;;;4.05;100.00
43450;BME280;29041;42.266;23.110;2024-01-16T07:11:51;95139.09;;;3.96;100.00
43450;BME280;29041;42.266;23.110;2024-01-16T07:14:38;95132.31;;;3.76;100.00
43450;BME280;29041;42.266;23.110;2024-01-16T07:17:25;95150.69;;;3.73;100.00
43450;BME280;29041;42.266;23.110;2024-01-16T07:20:13;95160.84;;;3.38;100.00
43450;BME280;29041;42.266;23.110;2024-01-16T07:23:00;95166.25;;;3.46;100.00
43450;BME280;29041;42.266;23.110;2024-01-16T07:25:48;95181.84;;;3.34;100.00
43450;BME280;29041;42.266;23.110;2024-01-16T07:28:36;95193.69;;;3.42;100.00
43450;BME280;29041;42.266;23.110;2024-01-16T07:31:23;95199.22;;;3.26;100.00
43450;BME280;29041;42.266;23.110;2024-01-16T07:34:10;95202.69;;;3.60;100.00
43450;BME280;29041;42.266;23.110;2024-01-16T07:36:57;95206.22;;;3.69;100.00
43450;BME280;29041;42.266;23.110;2024-01-16T07:39:44;95220.22;;;3.75;100.00
43450;BME280;29041;42.266;23.110;2024-01-16T07:42:33;95205.66;;;3.72;100.00
43450;BME280;29041;42.266;23.110;2024-01-16T07:45:20;95222.84;;;3.61;100.00
43450;BME280;29041;42.266;23.110;2024-01-16T07:48:07;95229.09;;;3.51;99.88
43450;BME280;29041;42.266;23.110;2024-01-16T07:50:55;95260.06;;;3.56;98.74
43450;BME280;29041;42.266;23.110;2024-01-16T07:53:42;95251.75;;;3.95;98.14
43450;BME280;29041;42.266;23.110;2024-01-16T07:56:29;95270.22;;;4.20;99.83
43450;BME280;29041;42.266;23.110;2024-01-16T07:59:17;95297.66;;;3.63;92.67
43450;BME280;29041;42.266;23.110;2024-01-16T08:02:05;95312.00;;;3.62;93.27
43450;BME280;29041;42.266;23.110;2024-01-16T08:04:52;95301.25;;;3.53;89.32
43450;BME280;29041;42.266;23.110;2024-01-16T08:07:39;95321.72;;;3.53;85.35
43450;BME280;29041;42.266;23.110;2024-01-16T08:10:28;95319.47;;;3.41;84.26
43450;BME280;29041;42.266;23.110;2024-01-16T08:13:16;95315.75;;;3.42;82.03
43450;BME280;29041;42.266;23.110;2024-01-16T08:16:05;95344.22;;;3.55;81.53
43450;BME280;29041;42.266;23.110;2024-01-16T08:18:52;95329.59;;;3.58;81.38
43450;BME280;29041;42.266;23.110;2024-01-16T08:21:39;95350.69;;;3.68;80.46
43450;BME280;29041;42.266;23.110;2024-01-16T08:24:26;95334.47;;;3.70;81.83
43450;BME280;29041;42.266;23.110;2024-01-16T08:27:13;95340.13;;;3.63;82.28
43450;BME280;29041;42.266;23.110;2024-01-16T08:30:02;95369.13;;;3.78;81.07
43450;BME280;29041;42.266;23.110;2024-01-16T08:32:50;95374.28;;;3.70;80.20
43450;BME280;29041;42.266;23.110;2024-01-16T08:35:38;95370.84;;;3.69;81.48
43450;BME280;29041;42.266;23.110;2024-01-16T08:38:25;95391.31;;;3.88;81.25
43450;BME280;29041;42.266;23.110;2024-01-16T08:41:12;95398.31;;;3.78;79.67
43450;BME280;29041;42.266;23.110;2024-01-16T08:43:59;95385.47;;;3.67;81.47
43450;BME280;29041;42.266;23.110;2024-01-16T08:46:47;95389.38;;;3.74;80.25
43450;BME280;29041;42.266;23.110;2024-01-16T08:49:35;95398.31;;;3.78;80.98
43450;BME280;29041;42.266;23.110;2024-01-16T08:52:24;95413.91;;;3.85;80.10
43450;BME280;29041;42.266;23.110;2024-01-16T08:55:11;95413.47;;;3.78;79.59
43450;BME280;29041;42.266;23.110;2024-01-16T08:57:58;95422.00;;;3.75;79.45
43450;BME280;29041;42.266;23.110;2024-01-16T09:00:45;95430.13;;;3.84;79.53
43450;BME280;29041;42.266;23.110;2024-01-16T09:03:33;95426.53;;;3.55;79.66
43450;BME280;29041;42.266;23.110;2024-01-16T09:06:21;95435.88;;;3.72;79.28
43450;BME280;29041;42.266;23.110;2024-01-16T09:09:08;95440.22;;;3.62;78.84
43450;BME280;29041;42.266;23.110;2024-01-16T09:11:55;95433.34;;;3.61;78.94
43450;BME280;29041;42.266;23.110;2024-01-16T09:14:43;95434.72;;;3.78;77.28
43450;BME280;29041;42.266;23.110;2024-01-16T09:17:30;95429.41;;;3.78;77.36
43450;BME280;29041;42.266;23.110;2024-01-16T09:20:18;95446.25;;;3.87;75.43
43450;BME280;29041;42.266;23.110;2024-01-16T09:23:06;95424.22;;;3.68;75.25
43450;BME280;29041;42.266;23.110;2024-01-16T09:25:53;95427.59;;;4.50;74.38
43450;BME280;29041;42.266;23.110;2024-01-16T09:28:40;95440.63;;;4.13;74.78
43450;BME280;29041;42.266;23.110;2024-01-16T09:31:28;95425.88;;;4.21;75.52
43450;BME280;29041;42.266;23.110;2024-01-16T09:34:15;95432.50;;;3.85;75.14
43450;BME280;29041;42.266;23.110;2024-01-16T09:37:03;95423.31;;;4.16;75.73
43450;BME280;29041;42.266;23.110;2024-01-16T09:39:51;95412.19;;;3.94;74.47
43450;BME280;29041;42.266;23.110;2024-01-16T09:42:39;95429.78;;;4.09;73.44
43450;BME280;29041;42.266;23.110;2024-01-16T09:45:29;95408.78;;;4.27;73.59
43450;BME280;29041;42.266;23.110;2024-01-16T09:48:17;95417.72;;;4.50;73.58
43450;BME280;29041;42.266;23.110;2024-01-16T09:51:04;95411.38;;;4.65;73.90
43450;BME280;29041;42.266;23.110;2024-01-16T09:53:51;95431.41;;;4.90;72.54
43450;BME280;29041;42.266;23.110;2024-01-16T09:56:42;95438.06;;;5.35;72.60
43450;BME280;29041;42.266;23.110;2024-01-16T09:59:31;95417.31;;;4.76;73.25
43450;BME280;29041;42.266;23.110;2024-01-16T10:02:19;95433.75;;;4.78;73.89
43450;BME280;29041;42.266;23.110;2024-01-16T10:05:08;95425.91;;;5.01;73.16
43450;BME280;29041;42.266;23.110;2024-01-16T10:07:55;95427.03;;;4.81;73.97
43450;BME280;29041;42.266;23.110;2024-01-16T10:11:02;95416.34;;;5.14;73.32
43450;BME280;29041;42.266;23.110;2024-01-16T10:13:51;95404.31;;;5.58;71.34
43450;BME280;29041;42.266;23.110;2024-01-16T10:16:58;95425.31;;;5.74;70.73
43450;BME280;29041;42.266;23.110;2024-01-16T10:19:50;95423.94;;;5.06;71.88
43450;BME280;29041;42.266;23.110;2024-01-16T10:22:37;95419.13;;;5.08;72.98
43450;BME280;29041;42.266;23.110;2024-01-16T10:25:24;95433.47;;;4.80;73.56
43450;BME280;29041;42.266;23.110;2024-01-16T10:28:11;95434.50;;;5.26;73.08
43450;BME280;29041;42.266;23.110;2024-01-16T10:31:08;95432.13;;;5.66;72.37
43450;BME280;29041;42.266;23.110;2024-01-16T10:33:56;95428.00;;;5.04;72.67
43450;BME280;29041;42.266;23.110;2024-01-16T10:36:43;95433.59;;;5.16;72.08
43450;BME280;29041;42.266;23.110;2024-01-16T10:39:30;95435.69;;;4.58;74.28
43450;BME280;29041;42.266;23.110;2024-01-16T10:42:17;95421.63;;;4.72;74.29
43450;BME280;29041;42.266;23.110;2024-01-16T10:45:06;95427.69;;;5.05;72.70
43450;BME280;29041;42.266;23.110;2024-01-16T10:48:02;95427.91;;;5.23;74.30
43450;BME280;29041;42.266;23.110;2024-01-16T10:50:50;95433.03;;;5.19;73.50
43450;BME280;29041;42.266;23.110;2024-01-16T10:53:42;95438.25;;;5.38;72.95
43450;BME280;29041;42.266;23.110;2024-01-16T10:56:29;95449.00;;;5.19;73.02
43450;BME280;29041;42.266;23.110;2024-01-16T10:59:19;95432.78;;;5.71;71.43
43450;BME280;29041;42.266;23.110;2024-01-16T11:02:12;95430.63;;;5.87;70.16
43450;BME280;29041;42.266;23.110;2024-01-16T11:05:04;95429.69;;;5.92;69.99
43450;BME280;29041;42.266;23.110;2024-01-16T11:07:54;95430.91;;;6.37;69.28
43450;BME280;29041;42.266;23.110;2024-01-16T11:10:43;95445.53;;;6.25;69.13
43450;BME280;29041;42.266;23.110;2024-01-16T11:13:31;95419.91;;;6.38;69.14
43450;BME280;29041;42.266;23.110;2024-01-16T11:16:19;95421.00;;;6.60;66.70
43450;BME280;29041;42.266;23.110;2024-01-16T11:19:08;95408.94;;;6.17;66.84
43450;BME280;29041;42.266;23.110;2024-01-16T11:21:58;95419.59;;;6.17;66.76
43450;BME280;29041;42.266;23.110;2024-01-16T11:25:09;95413.69;;;6.20;67.27
43450;BME280;29041;42.266;23.110;2024-01-16T11:28:07;95418.72;;;6.44;67.25
43450;BME280;29041;42.266;23.110;2024-01-16T11:30:55;95425.84;;;6.58;67.60
43450;BME280;29041;42.266;23.110;2024-01-16T11:33:42;95426.06;;;6.02;70.49
43450;BME280;29041;42.266;23.110;2024-01-16T11:36:49;95402.84;;;5.88;67.92
43450;BME280;29041;42.266;23.110;2024-01-16T11:39:40;95423.47;;;5.97;68.98
43450;BME280;29041;42.266;23.110;2024-01-16T11:42:28;95439.06;;;6.17;69.43
43450;BME280;29041;42.266;23.110;2024-01-16T11:45:48;95445.59;;;5.97;69.66
43450;BME280;29041;42.266;23.110;2024-01-16T11:48:36;95453.88;;;5.96;70.11
43450;BME280;29041;42.266;23.110;2024-01-16T11:51:25;95448.06;;;5.94;69.84
43450;BME280;29041;42.266;23.110;2024-01-16T11:54:13;95448.34;;;6.20;70.29
43450;BME280;29041;42.266;23.110;2024-01-16T12:00:25;95436.50;;;6.12;70.84
43450;BME280;29041;42.266;23.110;2024-01-16T12:03:15;95443.47;;;6.22;70.77
43450;BME280;29041;42.266;23.110;2024-01-16T12:06:03;95451.81;;;6.07;69.20
43450;BME280;29041;42.266;23.110;2024-01-16T12:08:52;95458.31;;;6.14;70.94
43450;BME280;29041;42.266;23.110;2024-01-16T12:11:39;95454.16;;;5.94;71.20
43450;BME280;29041;42.266;23.110;2024-01-16T12:14:29;95462.91;;;5.58;71.86
43450;BME280;29041;42.266;23.110;2024-01-16T12:17:18;95462.00;;;5.77;71.20
43450;BME280;29041;42.266;23.110;2024-01-16T12:20:16;95461.78;;;6.38;69.71
43450;BME280;29041;42.266;23.110;2024-01-16T12:23:05;95450.19;;;6.19;69.58
43450;BME280;29041;42.266;23.110;2024-01-16T12:25:52;95452.41;;;6.03;70.83
43450;BME280;29041;42.266;23.110;2024-01-16T12:28:40;95429.00;;;6.37;69.34
43450;BME280;29041;42.266;23.110;2024-01-16T12:31:28;95446.03;;;6.27;70.33
43450;BME280;29041;42.266;23.110;2024-01-16T12:34:16;95444.38;;;6.63;70.14
43450;BME280;29041;42.266;23.110;2024-01-16T12:37:09;95458.94;;;6.34;70.03
43450;BME280;29041;42.266;23.110;2024-01-16T12:39:56;95444.69;;;6.61;69.89
43450;BME280;29041;42.266;23.110;2024-01-16T12:42:43;95455.81;;;6.77;69.02
43450;BME280;29041;42.266;23.110;2024-01-16T12:45:30;95445.72;;;6.74;68.34
43450;BME280;29041;42.266;23.110;2024-01-16T12:48:22;95434.56;;;6.72;68.33
43450;BME280;29041;42.266;23.110;2024-01-16T12:51:11;95445.72;;;6.97;68.17
43450;BME280;29041;42.266;23.110;2024-01-16T12:54:10;95435.72;;;8.62;64.10
43450;BME280;29041;42.266;23.110;2024-01-16T12:56:58;95439.72;;;7.81;63.47
43450;BME280;29041;42.266;23.110;2024-01-16T12:59:46;95428.22;;;7.62;64.72
43450;BME280;29041;42.266;23.110;2024-01-16T13:02:34;95424.38;;;8.30;62.20
43450;BME280;29041;42.266;23.110;2024-01-16T13:05:21;95435.56;;;8.59;61.67
43450;BME280;29041;42.266;23.110;2024-01-16T13:08:17;95447.03;;;8.24;61.03
43450;BME280;29041;42.266;23.110;2024-01-16T13:11:06;95441.66;;;8.24;60.81
43450;BME280;29041;42.266;23.110;2024-01-16T13:14:01;95434.44;;;8.68;59.23
43450;BME280;29041;42.266;23.110;2024-01-16T13:16:50;95454.69;;;8.87;59.61
43450;BME280;29041;42.266;23.110;2024-01-16T13:19:37;95447.81;;;8.86;58.60
43450;BME280;29041;42.266;23.110;2024-01-16T13:22:24;95443.75;;;9.27;58.54
43450;BME280;29041;42.266;23.110;2024-01-16T13:25:13;95444.75;;;8.96;58.32
43450;BME280;29041;42.266;23.110;2024-01-16T13:28:01;95436.81;;;8.52;59.22
43450;BME280;29041;42.266;23.110;2024-01-16T13:30:48;95426.22;;;8.73;58.61
43450;BME280;29041;42.266;23.110;2024-01-16T13:33:35;95439.97;;;9.88;56.35
43450;BME280;29041;42.266;23.110;2024-01-16T13:36:22;95454.72;;;10.88;54.25
43450;BME280;29041;42.266;23.110;2024-01-16T13:39:10;95453.78;;;9.39;56.18
43450;BME280;29041;42.266;23.110;2024-01-16T13:42:05;95465.38;;;7.82;60.29
43450;BME280;29041;42.266;23.110;2024-01-16T13:44:52;95449.34;;;9.43;58.22
43450;BME280;29041;42.266;23.110;2024-01-16T13:47:39;95462.25;;;10.10;55.64
43450;BME280;29041;42.266;23.110;2024-01-16T13:50:27;95460.53;;;8.10;59.68
43450;BME280;29041;42.266;23.110;2024-01-16T13:53:15;95482.41;;;8.21;60.88
43450;BME280;29041;42.266;23.110;2024-01-16T13:56:03;95491.78;;;7.92;62.50
43450;BME280;29041;42.266;23.110;2024-01-16T13:58:52;95481.44;;;8.08;62.89
43450;BME280;29041;42.266;23.110;2024-01-16T14:01:39;95489.19;;;6.97;66.93
43450;BME280;29041;42.266;23.110;2024-01-16T14:04:26;95493.94;;;6.55;68.11
43450;BME280;29041;42.266;23.110;2024-01-16T14:07:13;95490.22;;;6.65;67.41
43450;BME280;29041;42.266;23.110;2024-01-16T14:10:01;95493.09;;;7.23;63.95
43450;BME280;29041;42.266;23.110;2024-01-16T14:12:49;95493.41;;;7.21;64.64
43450;BME280;29041;42.266;23.110;2024-01-16T14:15:38;95494.53;;;6.75;65.52
43450;BME280;29041;42.266;23.110;2024-01-16T14:18:25;95494.97;;;6.68;66.00
43450;BME280;29041;42.266;23.110;2024-01-16T14:21:12;95502.47;;;6.89;65.93
43450;BME280;29041;42.266;23.110;2024-01-16T14:24:00;95497.28;;;6.83;66.80
43450;BME280;29041;42.266;23.110;2024-01-16T14:26:47;95494.34;;;6.71;67.82
43450;BME280;29041;42.266;23.110;2024-01-16T14:29:37;95507.81;;;7.11;65.68
43450;BME280;29041;42.266;23.110;2024-01-16T14:32:26;95503.44;;;6.93;66.92
43450;BME280;29041;42.266;23.110;2024-01-16T14:35:14;95478.72;;;7.33;65.50
43450;BME280;29041;42.266;23.110;2024-01-16T14:38:03;95505.00;;;7.48;66.30
43450;BME280;29041;42.266;23.110;2024-01-16T14:40:51;95515.84;;;7.20;67.21
43450;BME280;29041;42.266;23.110;2024-01-16T14:43:41;95513.53;;;6.73;70.30
43450;BME280;29041;42.266;23.110;2024-01-16T14:46:28;95524.94;;;6.28;71.82
43450;BME280;29041;42.266;23.110;2024-01-16T14:49:17;95522.25;;;6.65;71.04